createdAt,value
2019-03-29T00:00:09.055Z,19.85
2019-03-29T00:01:09.053Z,19.89
2019-03-29T00:02:09.045Z,19.85
2019-03-29T00:03:09.199Z,19.89
2019-03-29T00:04:09.025Z,19.85
2019-03-29T00:05:09.000Z,19.89
2019-03-29T00:06:08.993Z,19.90
2019-03-29T00:07:08.985Z,19.85
2019-03-29T00:08:09.272Z,19.80
2019-03-29T00:09:08.969Z,19.80
2019-03-29T00:10:08.955Z,19.82
2019-03-29T00:11:08.938Z,19.83
2019-03-29T00:12:08.926Z,19.78
2019-03-29T00:13:08.917Z,19.85
2019-03-29T00:14:08.905Z,19.83
2019-03-29T00:15:08.933Z,19.85
2019-03-29T00:16:08.885Z,19.86
2019-03-29T00:17:08.874Z,19.78
2019-03-29T00:18:09.969Z,19.83
2019-03-29T00:19:08.852Z,19.80
2019-03-29T00:20:08.848Z,19.85
2019-03-29T00:21:08.865Z,19.83
2019-03-29T00:22:18.710Z,19.83
2019-03-29T00:23:08.807Z,19.89
2019-03-29T00:24:08.803Z,19.82
2019-03-29T00:25:08.790Z,19.86
2019-03-29T00:26:08.776Z,19.83
2019-03-29T00:27:08.779Z,19.85
2019-03-29T00:28:08.757Z,19.79
2019-03-29T00:29:08.750Z,19.82
2019-03-29T00:30:08.733Z,19.83
2019-03-29T00:31:08.727Z,19.82
2019-03-29T00:32:08.752Z,19.82
2019-03-29T00:33:08.701Z,19.80
2019-03-29T00:34:08.697Z,19.80
2019-03-29T00:35:08.684Z,19.82
2019-03-29T00:36:08.669Z,19.80
2019-03-29T00:37:08.664Z,19.82
2019-03-29T00:38:08.690Z,19.92
2019-03-29T00:39:08.638Z,19.82
2019-03-29T00:40:08.633Z,19.85
2019-03-29T00:41:08.627Z,19.78
2019-03-29T00:42:08.604Z,19.80
2019-03-29T00:43:09.079Z,19.76
2019-03-29T00:44:08.597Z,19.85
2019-03-29T00:45:08.576Z,19.86
2019-03-29T00:46:08.562Z,19.76
2019-03-29T00:47:08.559Z,19.76
2019-03-29T00:48:08.580Z,19.78
2019-03-29T00:49:08.531Z,19.75
2019-03-29T00:50:08.524Z,19.78
2019-03-29T00:51:08.513Z,19.78
2019-03-29T00:52:08.500Z,19.83
2019-03-29T00:53:18.849Z,19.78
2019-03-29T00:54:08.488Z,19.78
2019-03-29T00:55:08.470Z,19.75
2019-03-29T00:56:08.459Z,19.78
2019-03-29T00:57:08.449Z,19.76
2019-03-29T00:58:08.440Z,19.79
2019-03-29T00:59:08.453Z,19.75
2019-03-29T01:00:08.417Z,19.72
2019-03-29T01:01:08.406Z,19.80
2019-03-29T01:02:08.393Z,19.82
2019-03-29T01:03:08.388Z,19.79
2019-03-29T01:04:08.373Z,19.82
2019-03-29T01:05:08.399Z,19.79
2019-03-29T01:06:09.330Z,19.78
2019-03-29T01:07:08.346Z,19.80
2019-03-29T01:08:10.282Z,19.80
2019-03-29T01:09:08.324Z,19.75
2019-03-29T01:10:08.308Z,19.79
2019-03-29T01:11:08.471Z,19.76
2019-03-29T01:12:08.287Z,19.76
2019-03-29T01:13:08.283Z,19.82
2019-03-29T01:14:08.270Z,19.78
2019-03-29T01:15:09.054Z,19.78
2019-03-29T01:16:08.249Z,19.79
2019-03-29T01:17:08.242Z,19.83
2019-03-29T01:18:08.231Z,19.79
2019-03-29T01:19:08.220Z,19.80
2019-03-29T01:20:08.201Z,19.78
2019-03-29T01:21:08.206Z,19.80
2019-03-29T01:22:08.179Z,19.78
2019-03-29T01:23:08.171Z,19.78
2019-03-29T01:24:18.463Z,19.78
2019-03-29T01:25:08.560Z,19.68
2019-03-29T01:26:08.143Z,19.78
2019-03-29T01:27:08.169Z,19.75
2019-03-29T01:28:08.114Z,19.76
2019-03-29T01:29:08.111Z,19.78
2019-03-29T01:30:08.095Z,19.75
2019-03-29T01:31:08.083Z,19.76
2019-03-29T01:32:08.073Z,19.78
2019-03-29T01:33:08.079Z,19.71
2019-03-29T01:34:08.053Z,19.79
2019-03-29T01:35:09.084Z,19.79
2019-03-29T01:36:08.045Z,19.72
2019-03-29T01:37:08.023Z,19.80
2019-03-29T01:38:21.272Z,19.67
2019-03-29T01:39:08.999Z,19.79
2019-03-29T01:40:08.914Z,19.75
2019-03-29T01:41:07.982Z,19.78
2019-03-29T01:42:07.975Z,19.78
2019-03-29T01:43:07.956Z,19.78
2019-03-29T01:44:07.967Z,19.72
2019-03-29T01:45:07.941Z,19.76
2019-03-29T01:46:07.925Z,19.75
2019-03-29T01:47:07.913Z,19.76
2019-03-29T01:48:07.909Z,19.75
2019-03-29T01:49:07.896Z,19.75
2019-03-29T01:50:08.179Z,19.76
2019-03-29T01:51:07.876Z,19.79
2019-03-29T01:52:07.861Z,19.75
2019-03-29T01:53:07.850Z,19.80
2019-03-29T01:54:07.842Z,19.79
2019-03-29T01:55:18.433Z,19.78
2019-03-29T01:56:07.819Z,19.76
2019-03-29T01:57:07.814Z,19.76
2019-03-29T01:58:07.799Z,19.71
2019-03-29T01:59:07.791Z,19.78
2019-03-29T02:00:09.079Z,19.72
2019-03-29T02:01:07.765Z,19.79
2019-03-29T02:02:07.754Z,19.80
2019-03-29T02:03:07.746Z,19.80
2019-03-29T02:04:08.214Z,19.78
2019-03-29T02:05:07.731Z,19.78
2019-03-29T02:06:07.756Z,19.75
2019-03-29T02:07:07.706Z,19.76
2019-03-29T02:08:07.697Z,19.67
2019-03-29T02:09:07.681Z,19.71
2019-03-29T02:10:07.675Z,19.64
2019-03-29T02:11:07.665Z,19.76
2019-03-29T02:12:08.408Z,19.75
2019-03-29T02:13:07.636Z,19.71
2019-03-29T02:14:07.634Z,19.75
2019-03-29T02:15:07.615Z,19.68
2019-03-29T02:16:07.605Z,19.76
2019-03-29T02:17:07.594Z,19.75
2019-03-29T02:18:07.625Z,19.71
2019-03-29T02:19:07.574Z,19.79
2019-03-29T02:20:07.563Z,19.71
2019-03-29T02:21:07.554Z,19.71
2019-03-29T02:22:09.020Z,19.76
2019-03-29T02:23:07.533Z,19.72
2019-03-29T02:24:07.530Z,19.76
2019-03-29T02:25:07.510Z,19.75
2019-03-29T02:26:19.107Z,19.76
2019-03-29T02:27:07.489Z,19.71
2019-03-29T02:28:07.489Z,19.72
2019-03-29T02:29:07.465Z,19.68
2019-03-29T02:30:07.457Z,19.68
2019-03-29T02:31:07.445Z,19.67
2019-03-29T02:32:07.437Z,19.68
2019-03-29T02:33:07.434Z,19.78
2019-03-29T02:34:07.420Z,19.76
2019-03-29T02:35:07.413Z,19.72
2019-03-29T02:36:07.396Z,19.72
2019-03-29T02:37:07.380Z,19.79
2019-03-29T02:38:07.378Z,19.76
2019-03-29T02:39:07.514Z,19.78
2019-03-29T02:40:07.357Z,19.83
2019-03-29T02:41:07.340Z,19.79
2019-03-29T02:42:07.330Z,19.75
2019-03-29T02:43:07.320Z,19.70
2019-03-29T02:44:07.614Z,19.78
2019-03-29T02:45:07.310Z,19.72
2019-03-29T02:46:07.293Z,19.71
2019-03-29T02:47:07.290Z,19.80
2019-03-29T02:48:07.274Z,19.78
2019-03-29T02:49:07.258Z,19.80
2019-03-29T02:50:08.573Z,19.75
2019-03-29T02:51:07.247Z,19.70
2019-03-29T02:52:07.327Z,19.76
2019-03-29T02:53:07.209Z,19.80
2019-03-29T02:54:07.221Z,19.76
2019-03-29T02:55:07.193Z,19.80
2019-03-29T02:56:07.219Z,19.76
2019-03-29T02:57:17.239Z,19.72
2019-03-29T02:58:07.175Z,19.78
2019-03-29T02:59:07.161Z,19.79
2019-03-29T03:00:07.232Z,19.76
2019-03-29T03:01:07.125Z,19.71
2019-03-29T03:02:07.138Z,19.68
2019-03-29T03:03:07.105Z,19.76
2019-03-29T03:04:07.095Z,19.68
2019-03-29T03:05:07.083Z,19.62
2019-03-29T03:06:07.077Z,19.78
2019-03-29T03:07:07.302Z,19.71
2019-03-29T03:08:07.049Z,19.76
2019-03-29T03:09:14.137Z,19.71
2019-03-29T03:10:08.034Z,19.72
2019-03-29T03:11:07.027Z,19.76
2019-03-29T03:12:07.008Z,19.78
2019-03-29T03:13:07.006Z,19.67
2019-03-29T03:14:06.992Z,19.76
2019-03-29T03:15:06.979Z,19.72
2019-03-29T03:16:06.970Z,19.78
2019-03-29T03:17:06.956Z,19.71
2019-03-29T03:18:06.988Z,19.68
2019-03-29T03:19:06.938Z,19.79
2019-03-29T03:20:06.927Z,19.76
2019-03-29T03:21:06.920Z,19.75
2019-03-29T03:22:06.905Z,19.75
2019-03-29T03:23:06.898Z,19.72
2019-03-29T03:24:07.009Z,19.80
2019-03-29T03:25:06.871Z,19.79
2019-03-29T03:26:06.862Z,19.76
2019-03-29T03:27:06.856Z,19.76
2019-03-29T03:28:17.225Z,19.70
2019-03-29T03:29:06.837Z,19.78
2019-03-29T03:30:06.866Z,19.72
2019-03-29T03:31:06.812Z,19.75
2019-03-29T03:32:06.807Z,19.68
2019-03-29T03:33:06.797Z,19.75
2019-03-29T03:34:06.780Z,19.70
2019-03-29T03:35:06.773Z,19.75
2019-03-29T03:36:06.767Z,19.72
2019-03-29T03:37:06.748Z,19.76
2019-03-29T03:38:06.740Z,19.76
2019-03-29T03:39:06.724Z,19.75
2019-03-29T03:40:06.709Z,19.78
2019-03-29T03:41:07.089Z,19.71
2019-03-29T03:42:06.691Z,19.76
2019-03-29T03:43:06.681Z,19.76
2019-03-29T03:44:06.676Z,19.72
2019-03-29T03:45:06.673Z,19.75
2019-03-29T03:46:06.654Z,19.78
2019-03-29T03:47:06.679Z,19.79
2019-03-29T03:48:06.631Z,19.79
2019-03-29T03:49:06.621Z,19.72
2019-03-29T03:50:06.609Z,19.79
2019-03-29T03:51:06.602Z,19.71
2019-03-29T03:52:06.587Z,19.71
2019-03-29T03:53:06.585Z,19.79
2019-03-29T03:54:06.563Z,19.75
2019-03-29T03:55:06.567Z,19.70
2019-03-29T03:56:06.547Z,19.78
2019-03-29T03:57:06.537Z,19.70
2019-03-29T03:58:06.530Z,19.75
2019-03-29T03:59:17.208Z,19.71
2019-03-29T04:00:06.500Z,19.71
2019-03-29T04:01:06.490Z,19.71
2019-03-29T04:02:06.484Z,19.71
2019-03-29T04:03:06.640Z,19.75
2019-03-29T04:04:06.464Z,19.70
2019-03-29T04:05:06.467Z,19.76
2019-03-29T04:06:06.432Z,19.71
2019-03-29T04:07:06.425Z,19.71
2019-03-29T04:08:06.416Z,19.75
2019-03-29T04:09:06.436Z,19.75
2019-03-29T04:10:06.390Z,19.67
2019-03-29T04:11:06.413Z,19.70
2019-03-29T04:12:06.376Z,19.71
2019-03-29T04:13:06.360Z,19.72
2019-03-29T04:14:06.367Z,19.67
2019-03-29T04:15:06.521Z,19.67
2019-03-29T04:16:06.334Z,19.68
2019-03-29T04:17:06.319Z,19.76
2019-03-29T04:18:06.309Z,19.75
2019-03-29T04:19:06.294Z,19.75
2019-03-29T04:20:06.285Z,19.71
2019-03-29T04:21:06.296Z,19.70
2019-03-29T04:22:06.269Z,19.72
2019-03-29T04:23:06.267Z,19.70
2019-03-29T04:24:06.254Z,19.71
2019-03-29T04:25:06.231Z,19.72
2019-03-29T04:26:06.267Z,19.76
2019-03-29T04:27:06.226Z,19.68
2019-03-29T04:28:06.199Z,19.78
2019-03-29T04:29:06.191Z,19.79
2019-03-29T04:30:16.258Z,19.67
2019-03-29T04:31:06.171Z,19.71
2019-03-29T04:32:06.167Z,19.72
2019-03-29T04:33:10.583Z,19.75
2019-03-29T04:34:07.219Z,19.76
2019-03-29T04:35:06.130Z,19.78
2019-03-29T04:36:06.231Z,19.75
2019-03-29T04:37:06.285Z,19.75
2019-03-29T04:38:06.254Z,19.76
2019-03-29T04:39:06.095Z,19.62
2019-03-29T04:40:08.438Z,19.80
2019-03-29T04:41:06.065Z,19.75
2019-03-29T04:42:06.059Z,19.75
2019-03-29T04:43:06.081Z,19.75
2019-03-29T04:44:06.029Z,19.78
2019-03-29T04:45:06.030Z,19.78
2019-03-29T04:46:06.010Z,19.79
2019-03-29T04:47:06.611Z,19.76
2019-03-29T04:48:05.986Z,19.70
2019-03-29T04:49:06.124Z,19.76
2019-03-29T04:50:05.964Z,19.70
2019-03-29T04:51:05.959Z,19.72
2019-03-29T04:52:05.946Z,19.76
2019-03-29T04:53:05.937Z,19.82
2019-03-29T04:54:05.931Z,19.70
2019-03-29T04:55:05.919Z,19.75
2019-03-29T04:56:05.901Z,19.75
2019-03-29T04:57:05.890Z,19.79
2019-03-29T04:58:05.883Z,19.64
2019-03-29T04:59:05.910Z,19.68
2019-03-29T05:00:05.858Z,19.75
2019-03-29T05:01:17.475Z,19.68
2019-03-29T05:02:05.842Z,19.76
2019-03-29T05:03:05.830Z,19.68
2019-03-29T05:04:05.823Z,19.72
2019-03-29T05:05:05.816Z,19.72
2019-03-29T05:06:05.794Z,19.68
2019-03-29T05:07:05.785Z,19.80
2019-03-29T05:08:05.784Z,19.76
2019-03-29T05:09:05.768Z,19.68
2019-03-29T05:10:19.905Z,19.71
2019-03-29T05:11:06.782Z,19.76
2019-03-29T05:12:05.738Z,19.71
2019-03-29T05:13:05.725Z,19.71
2019-03-29T05:14:05.711Z,19.76
2019-03-29T05:15:05.703Z,19.76
2019-03-29T05:16:05.690Z,19.68
2019-03-29T05:17:05.695Z,19.78
2019-03-29T05:18:05.670Z,19.75
2019-03-29T05:19:05.661Z,19.75
2019-03-29T05:20:05.653Z,19.71
2019-03-29T05:21:05.665Z,19.75
2019-03-29T05:22:05.636Z,19.72
2019-03-29T05:23:05.621Z,19.78
2019-03-29T05:24:05.602Z,19.76
2019-03-29T05:25:05.595Z,19.76
2019-03-29T05:26:05.589Z,19.79
2019-03-29T05:27:05.593Z,19.70
2019-03-29T05:28:05.565Z,19.76
2019-03-29T05:29:05.550Z,19.68
2019-03-29T05:30:05.548Z,19.68
2019-03-29T05:31:05.535Z,19.76
2019-03-29T05:32:16.202Z,19.72
2019-03-29T05:33:05.513Z,19.71
2019-03-29T05:34:05.502Z,19.71
2019-03-29T05:35:05.491Z,19.79
2019-03-29T05:36:05.476Z,19.78
2019-03-29T05:37:05.474Z,19.68
2019-03-29T05:38:05.465Z,19.78
2019-03-29T05:39:05.443Z,19.68
2019-03-29T05:40:05.433Z,19.71
2019-03-29T05:41:05.423Z,19.75
2019-03-29T05:42:05.413Z,19.72
2019-03-29T05:43:05.408Z,19.75
2019-03-29T05:44:05.432Z,19.75
2019-03-29T05:45:05.388Z,19.72
2019-03-29T05:46:05.370Z,19.78
2019-03-29T05:47:05.365Z,19.71
2019-03-29T05:48:05.352Z,19.72
2019-03-29T05:49:05.336Z,19.75
2019-03-29T05:50:05.336Z,19.75
2019-03-29T05:51:05.315Z,19.80
2019-03-29T05:52:05.310Z,19.75
2019-03-29T05:53:05.328Z,19.67
2019-03-29T05:54:05.284Z,19.75
2019-03-29T05:55:05.311Z,19.78
2019-03-29T05:56:05.269Z,19.71
2019-03-29T05:57:05.255Z,19.76
2019-03-29T05:58:05.248Z,19.79
2019-03-29T05:59:05.231Z,19.78
2019-03-29T06:00:05.235Z,19.78
2019-03-29T06:01:05.221Z,19.82
2019-03-29T06:02:05.209Z,19.76
2019-03-29T06:03:15.549Z,19.75
2019-03-29T06:04:05.176Z,19.79
2019-03-29T06:05:05.171Z,19.80
2019-03-29T06:06:05.168Z,19.78
2019-03-29T06:07:05.158Z,19.79
2019-03-29T06:08:05.143Z,19.86
2019-03-29T06:09:05.130Z,19.72
2019-03-29T06:10:05.114Z,19.79
2019-03-29T06:11:05.107Z,19.79
2019-03-29T06:12:05.104Z,19.83
2019-03-29T06:13:05.083Z,19.85
2019-03-29T06:14:05.087Z,19.83
2019-03-29T06:15:05.065Z,19.86
2019-03-29T06:16:06.240Z,19.83
2019-03-29T06:17:05.043Z,19.86
2019-03-29T06:18:05.039Z,19.90
2019-03-29T06:19:05.058Z,19.89
2019-03-29T06:20:05.011Z,19.86
2019-03-29T06:21:05.000Z,19.82
2019-03-29T06:22:04.989Z,19.89
2019-03-29T06:23:04.978Z,19.83
2019-03-29T06:24:04.965Z,19.89
2019-03-29T06:25:04.998Z,19.86
2019-03-29T06:26:04.946Z,19.89
2019-03-29T06:27:04.933Z,19.90
2019-03-29T06:28:04.933Z,19.86
2019-03-29T06:29:04.916Z,19.90
2019-03-29T06:30:04.904Z,19.90
2019-03-29T06:31:04.930Z,19.87
2019-03-29T06:32:04.884Z,19.89
2019-03-29T06:33:04.876Z,19.90
2019-03-29T06:34:17.106Z,19.83
2019-03-29T06:35:04.848Z,19.90
2019-03-29T06:36:04.839Z,19.83
2019-03-29T06:37:04.842Z,19.87
2019-03-29T06:38:04.817Z,19.90
2019-03-29T06:39:04.803Z,19.87
2019-03-29T06:40:04.792Z,19.89
2019-03-29T06:41:04.826Z,19.92
2019-03-29T06:42:04.773Z,19.90
2019-03-29T06:43:04.764Z,19.86
2019-03-29T06:44:04.756Z,19.86
2019-03-29T06:45:04.742Z,19.90
2019-03-29T06:46:04.728Z,19.95
2019-03-29T06:47:04.760Z,19.94
2019-03-29T06:48:04.711Z,19.95
2019-03-29T06:49:04.697Z,20.02
2019-03-29T06:50:04.687Z,19.95
2019-03-29T06:51:04.679Z,20.01
2019-03-29T06:52:04.666Z,20.00
2019-03-29T06:53:04.708Z,20.15
2019-03-29T06:54:04.650Z,20.10
2019-03-29T06:55:04.635Z,20.05
2019-03-29T06:56:04.622Z,20.05
2019-03-29T06:57:04.622Z,20.04
2019-03-29T06:58:04.609Z,20.07
2019-03-29T06:59:04.599Z,20.05
2019-03-29T07:00:04.588Z,20.07
2019-03-29T07:01:04.574Z,20.05
2019-03-29T07:02:04.569Z,20.08
2019-03-29T07:03:04.588Z,20.05
2019-03-29T07:04:04.537Z,20.12
2019-03-29T07:05:16.024Z,20.12
2019-03-29T07:06:04.519Z,20.07
2019-03-29T07:07:04.511Z,19.98
2019-03-29T07:08:04.497Z,20.10
2019-03-29T07:09:04.536Z,20.07
2019-03-29T07:10:04.480Z,20.04
2019-03-29T07:11:16.710Z,20.10
2019-03-29T07:12:05.456Z,20.05
2019-03-29T07:13:04.448Z,20.22
2019-03-29T07:14:04.433Z,20.15
2019-03-29T07:15:04.435Z,20.15
2019-03-29T07:16:04.409Z,20.17
2019-03-29T07:17:04.401Z,20.20
2019-03-29T07:18:04.393Z,20.16
2019-03-29T07:19:05.120Z,20.17
2019-03-29T07:20:04.415Z,20.17
2019-03-29T07:21:04.357Z,20.19
2019-03-29T07:22:04.347Z,20.25
2019-03-29T07:23:04.341Z,20.20
2019-03-29T07:24:04.330Z,20.22
2019-03-29T07:25:04.321Z,20.16
2019-03-29T07:26:04.317Z,20.19
2019-03-29T07:27:04.306Z,20.12
2019-03-29T07:28:04.283Z,20.12
2019-03-29T07:29:04.274Z,20.04
2019-03-29T07:30:04.272Z,20.02
2019-03-29T07:31:04.275Z,20.08
2019-03-29T07:32:04.244Z,20.04
2019-03-29T07:33:04.229Z,19.95
2019-03-29T07:34:04.217Z,19.87
2019-03-29T07:35:04.213Z,19.68
2019-03-29T07:36:14.937Z,19.57
2019-03-29T07:37:05.861Z,19.15
2019-03-29T07:38:04.179Z,18.53
2019-03-29T07:39:04.175Z,18.32
2019-03-29T07:40:04.154Z,18.23
2019-03-29T07:41:04.149Z,18.28
2019-03-29T07:42:04.308Z,18.25
2019-03-29T07:43:04.129Z,18.17
2019-03-29T07:44:04.116Z,17.98
2019-03-29T07:45:04.099Z,17.79
2019-03-29T07:46:04.093Z,17.70
2019-03-29T07:47:04.089Z,17.51
2019-03-29T07:48:04.248Z,17.14
2019-03-29T07:49:04.066Z,16.96
2019-03-29T07:50:04.050Z,16.92
2019-03-29T07:51:04.042Z,16.82
2019-03-29T07:52:04.033Z,16.82
2019-03-29T07:53:04.015Z,16.66
2019-03-29T07:54:04.015Z,16.55
2019-03-29T07:55:03.993Z,16.32
2019-03-29T07:56:03.985Z,16.22
2019-03-29T07:57:03.973Z,16.18
2019-03-29T07:58:03.974Z,16.10
2019-03-29T07:59:03.972Z,15.88
2019-03-29T08:00:03.945Z,15.76
2019-03-29T08:01:03.932Z,15.71
2019-03-29T08:02:03.917Z,15.74
2019-03-29T08:03:03.913Z,15.84
2019-03-29T08:04:03.903Z,15.81
2019-03-29T08:05:03.905Z,16.10
2019-03-29T08:06:03.875Z,16.14
2019-03-29T08:07:26.716Z,16.13
2019-03-29T08:08:04.854Z,16.27
2019-03-29T08:09:03.847Z,16.37
2019-03-29T08:10:04.265Z,16.22
2019-03-29T08:11:03.819Z,16.44
2019-03-29T08:12:03.816Z,16.52
2019-03-29T08:13:03.798Z,16.54
2019-03-29T08:14:03.794Z,16.75
2019-03-29T08:15:03.791Z,16.78
2019-03-29T08:16:06.594Z,16.96
2019-03-29T08:17:03.756Z,17.06
2019-03-29T08:18:03.750Z,17.15
2019-03-29T08:19:03.738Z,17.12
2019-03-29T08:20:36.525Z,17.25
2019-03-29T08:21:04.710Z,17.33
2019-03-29T08:22:03.763Z,17.46
2019-03-29T08:23:03.692Z,17.62
2019-03-29T08:24:03.682Z,17.45
2019-03-29T08:25:03.668Z,17.17
2019-03-29T08:26:03.705Z,16.72
2019-03-29T08:27:03.652Z,16.70
2019-03-29T08:28:04.383Z,16.66
2019-03-29T08:29:03.630Z,16.65
2019-03-29T08:30:03.616Z,16.51
2019-03-29T08:31:03.607Z,16.65
2019-03-29T08:32:03.630Z,16.63
2019-03-29T08:33:03.583Z,16.87
2019-03-29T08:34:03.621Z,16.87
2019-03-29T08:35:03.566Z,17.02
2019-03-29T08:36:03.557Z,17.21
2019-03-29T08:37:03.547Z,17.33
2019-03-29T08:38:14.438Z,17.45
2019-03-29T08:39:03.524Z,17.68
2019-03-29T08:40:03.526Z,17.87
2019-03-29T08:41:03.495Z,17.83
2019-03-29T08:42:03.534Z,17.98
2019-03-29T08:43:03.520Z,18.05
2019-03-29T08:44:03.471Z,18.21
2019-03-29T08:45:03.460Z,18.23
2019-03-29T08:46:03.451Z,18.29
2019-03-29T08:47:03.434Z,18.34
2019-03-29T08:48:06.553Z,18.32
2019-03-29T08:49:03.449Z,18.41
2019-03-29T08:50:03.404Z,18.57
2019-03-29T08:51:03.392Z,18.64
2019-03-29T08:52:03.389Z,18.89
2019-03-29T08:53:03.369Z,19.12
2019-03-29T08:54:03.355Z,19.27
2019-03-29T08:55:03.361Z,19.53
2019-03-29T08:56:03.343Z,19.72
2019-03-29T08:57:03.332Z,19.97
2019-03-29T08:58:03.320Z,20.08
2019-03-29T08:59:03.308Z,20.15
2019-03-29T09:00:03.478Z,20.42
2019-03-29T09:01:03.285Z,20.56
2019-03-29T09:02:03.273Z,20.72
2019-03-29T09:03:03.264Z,21.01
2019-03-29T09:04:05.841Z,21.21
2019-03-29T09:05:03.240Z,21.58
2019-03-29T09:06:03.239Z,21.89
2019-03-29T09:07:03.219Z,22.08
2019-03-29T09:08:03.205Z,22.26
2019-03-29T09:09:14.255Z,22.38
2019-03-29T09:10:03.191Z,22.33
2019-03-29T09:11:03.180Z,22.30
2019-03-29T09:12:13.659Z,22.20
2019-03-29T09:13:04.670Z,22.11
2019-03-29T09:14:03.150Z,21.98
2019-03-29T09:15:04.077Z,21.99
2019-03-29T09:16:03.139Z,21.90
2019-03-29T09:17:03.122Z,21.90
2019-03-29T09:18:03.116Z,21.59
2019-03-29T09:19:03.098Z,21.12
2019-03-29T09:20:03.086Z,20.72
2019-03-29T09:21:10.514Z,20.20
2019-03-29T09:22:03.054Z,19.79
2019-03-29T09:23:03.091Z,19.58
2019-03-29T09:24:03.040Z,19.35
2019-03-29T09:25:03.025Z,19.23
2019-03-29T09:26:03.016Z,19.05
2019-03-29T09:27:03.045Z,18.89
2019-03-29T09:28:02.997Z,18.72
2019-03-29T09:29:02.982Z,18.75
2019-03-29T09:30:05.120Z,18.72
2019-03-29T09:31:02.959Z,18.66
2019-03-29T09:32:02.954Z,18.64
2019-03-29T09:33:02.980Z,18.41
2019-03-29T09:34:02.976Z,18.32
2019-03-29T09:35:02.916Z,18.21
2019-03-29T09:36:04.932Z,17.98
2019-03-29T09:37:02.897Z,17.95
2019-03-29T09:38:02.887Z,17.77
2019-03-29T09:39:02.889Z,17.71
2019-03-29T09:40:02.872Z,17.81
2019-03-29T09:41:02.859Z,17.84
2019-03-29T09:42:02.847Z,18.11
2019-03-29T09:43:09.135Z,18.10
2019-03-29T09:44:03.907Z,18.23
2019-03-29T09:45:02.810Z,18.41
2019-03-29T09:46:03.480Z,18.57
2019-03-29T09:47:02.798Z,18.64
2019-03-29T09:48:02.786Z,18.75
2019-03-29T09:49:02.770Z,18.91
2019-03-29T09:50:02.805Z,19.09
2019-03-29T09:51:02.751Z,19.28
2019-03-29T09:52:12.689Z,19.60
2019-03-29T09:53:02.729Z,19.79
2019-03-29T09:54:02.721Z,19.95
2019-03-29T09:55:02.703Z,20.12
2019-03-29T09:56:02.883Z,20.17
2019-03-29T09:57:02.692Z,20.34
2019-03-29T09:58:02.673Z,20.19
2019-03-29T09:59:02.667Z,20.13
2019-03-29T10:00:02.662Z,20.07
2019-03-29T10:01:02.647Z,20.10
2019-03-29T10:02:02.637Z,19.95
2019-03-29T10:03:02.624Z,19.97
2019-03-29T10:04:02.610Z,20.00
2019-03-29T10:05:02.602Z,19.89
2019-03-29T10:06:02.593Z,19.75
2019-03-29T10:07:02.619Z,19.75
2019-03-29T10:08:02.572Z,19.71
2019-03-29T10:09:02.561Z,19.76
2019-03-29T10:10:02.549Z,19.79
2019-03-29T10:11:02.538Z,19.80
2019-03-29T10:12:02.524Z,19.82
2019-03-29T10:13:02.560Z,19.75
2019-03-29T10:14:02.501Z,19.75
2019-03-29T10:15:02.495Z,19.75
2019-03-29T10:16:02.478Z,19.55
2019-03-29T10:17:02.476Z,19.30
2019-03-29T10:18:02.463Z,19.10
2019-03-29T10:19:02.487Z,18.89
2019-03-29T10:20:02.442Z,18.59
2019-03-29T10:21:02.442Z,18.66
2019-03-29T10:22:02.420Z,18.68
2019-03-29T10:23:12.517Z,18.82
2019-03-29T10:24:02.440Z,19.07
2019-03-29T10:25:02.808Z,19.32
2019-03-29T10:26:02.380Z,19.46
2019-03-29T10:27:02.371Z,19.47
2019-03-29T10:28:02.354Z,19.45
2019-03-29T10:29:02.349Z,19.45
2019-03-29T10:30:02.507Z,19.43
2019-03-29T10:31:02.318Z,19.34
2019-03-29T10:32:05.493Z,19.21
2019-03-29T10:33:03.297Z,19.21
2019-03-29T10:34:02.290Z,19.30
2019-03-29T10:35:02.281Z,19.60
2019-03-29T10:36:02.277Z,19.78
2019-03-29T10:37:02.259Z,19.83
2019-03-29T10:38:02.245Z,19.98
2019-03-29T10:39:02.250Z,20.15
2019-03-29T10:40:02.226Z,20.27
2019-03-29T10:41:02.385Z,20.50
2019-03-29T10:42:02.204Z,20.58
2019-03-29T10:43:02.191Z,20.71
2019-03-29T10:44:02.188Z,20.90
2019-03-29T10:45:02.169Z,20.94
2019-03-29T10:46:02.165Z,21.06
2019-03-29T10:47:02.328Z,21.18
2019-03-29T10:48:02.141Z,21.21
2019-03-29T10:49:02.127Z,21.31
2019-03-29T10:50:02.116Z,21.45
2019-03-29T10:51:02.105Z,21.48
2019-03-29T10:52:02.094Z,21.58
2019-03-29T10:53:02.098Z,21.64
2019-03-29T10:54:12.960Z,21.77
2019-03-29T10:55:02.074Z,21.85
2019-03-29T10:56:02.058Z,21.90
2019-03-29T10:57:02.042Z,22.01
2019-03-29T10:58:02.046Z,22.09
2019-03-29T10:59:02.021Z,22.12
2019-03-29T11:00:02.013Z,22.15
2019-03-29T11:01:01.998Z,22.12
2019-03-29T11:02:01.996Z,22.26
2019-03-29T11:03:02.016Z,22.27
2019-03-29T11:04:01.968Z,22.33
2019-03-29T11:05:01.981Z,22.36
2019-03-29T11:06:01.954Z,22.35
2019-03-29T11:07:01.944Z,22.45
2019-03-29T11:08:01.924Z,22.42
2019-03-29T11:09:01.952Z,22.42
2019-03-29T11:10:01.900Z,22.49
2019-03-29T11:11:01.901Z,22.42
2019-03-29T11:12:01.880Z,22.46
2019-03-29T11:13:12.484Z,22.51
2019-03-29T11:14:02.878Z,22.52
2019-03-29T11:15:01.853Z,22.45
2019-03-29T11:16:01.850Z,22.44
2019-03-29T11:17:01.826Z,22.52
2019-03-29T11:18:01.845Z,22.42
2019-03-29T11:19:01.814Z,22.46
2019-03-29T11:20:01.813Z,22.31
2019-03-29T11:21:01.783Z,22.33
2019-03-29T11:22:01.787Z,22.36
2019-03-29T11:23:01.770Z,22.36
2019-03-29T11:24:01.756Z,22.38
2019-03-29T11:25:12.695Z,22.30
2019-03-29T11:26:01.738Z,22.33
2019-03-29T11:27:01.724Z,22.30
2019-03-29T11:28:01.710Z,22.21
2019-03-29T11:29:01.700Z,22.27
2019-03-29T11:30:01.707Z,22.27
2019-03-29T11:31:01.683Z,22.17
2019-03-29T11:32:01.668Z,22.21
2019-03-29T11:33:01.655Z,22.19
2019-03-29T11:34:01.651Z,22.20
2019-03-29T11:35:01.678Z,22.20
2019-03-29T11:36:01.622Z,22.15
2019-03-29T11:37:01.615Z,22.14
2019-03-29T11:38:01.605Z,22.12
2019-03-29T11:39:01.596Z,22.19
2019-03-29T11:40:01.589Z,22.17
2019-03-29T11:41:01.588Z,22.17
2019-03-29T11:42:03.515Z,22.17
2019-03-29T11:43:01.549Z,22.20
2019-03-29T11:44:01.536Z,22.17
2019-03-29T11:45:01.530Z,22.29
2019-03-29T11:46:01.514Z,22.33
2019-03-29T11:47:01.521Z,22.36
2019-03-29T11:48:08.229Z,22.35
2019-03-29T11:49:02.487Z,22.38
2019-03-29T11:50:01.476Z,22.36
2019-03-29T11:51:01.466Z,22.30
2019-03-29T11:52:01.489Z,22.31
2019-03-29T11:53:01.442Z,22.33
2019-03-29T11:54:01.437Z,22.36
2019-03-29T11:55:01.420Z,22.35
2019-03-29T11:56:11.506Z,22.35
2019-03-29T11:57:01.401Z,22.49
2019-03-29T11:58:01.431Z,22.56
2019-03-29T11:59:01.382Z,22.69
2019-03-29T12:00:01.366Z,22.76
2019-03-29T12:01:01.354Z,22.86
2019-03-29T12:02:01.346Z,22.89
2019-03-29T12:03:01.339Z,22.81
2019-03-29T12:04:01.368Z,22.79
2019-03-29T12:05:01.314Z,22.67
2019-03-29T12:06:01.309Z,22.69
2019-03-29T12:07:03.593Z,22.70
2019-03-29T12:08:01.282Z,22.63
2019-03-29T12:09:01.272Z,22.63
2019-03-29T12:10:01.269Z,22.60
2019-03-29T12:11:01.249Z,22.57
2019-03-29T12:12:01.246Z,22.54
2019-03-29T12:13:01.235Z,22.60
2019-03-29T12:14:02.345Z,22.52
2019-03-29T12:15:01.246Z,22.51
2019-03-29T12:16:01.196Z,22.42
2019-03-29T12:17:01.190Z,22.45
2019-03-29T12:18:01.180Z,22.46
2019-03-29T12:19:01.170Z,22.30
2019-03-29T12:20:01.152Z,22.36
2019-03-29T12:21:01.158Z,22.36
2019-03-29T12:22:01.134Z,22.35
2019-03-29T12:23:01.121Z,22.24
2019-03-29T12:24:01.113Z,22.31
2019-03-29T12:25:01.106Z,22.33
2019-03-29T12:26:01.089Z,22.36
2019-03-29T12:27:11.170Z,22.36
2019-03-29T12:28:01.077Z,22.33
2019-03-29T12:29:01.088Z,22.31
2019-03-29T12:30:01.056Z,22.45
2019-03-29T12:31:01.053Z,22.31
2019-03-29T12:32:01.051Z,22.38
2019-03-29T12:33:01.016Z,22.33
2019-03-29T12:34:01.004Z,22.33
2019-03-29T12:35:01.031Z,22.27
2019-03-29T12:36:00.988Z,22.27
2019-03-29T12:37:00.974Z,22.33
2019-03-29T12:38:00.971Z,22.30
2019-03-29T12:39:00.952Z,22.15
2019-03-29T12:40:00.943Z,22.17
2019-03-29T12:41:00.936Z,22.20
2019-03-29T12:42:00.927Z,22.19
2019-03-29T12:43:01.085Z,22.17
2019-03-29T12:44:00.897Z,22.20
2019-03-29T12:45:00.892Z,22.24
2019-03-29T12:46:00.887Z,22.20
2019-03-29T12:47:00.863Z,22.15
2019-03-29T12:48:00.860Z,22.23
2019-03-29T12:49:00.892Z,22.15
2019-03-29T12:50:00.885Z,22.12
2019-03-29T12:51:00.824Z,22.19
2019-03-29T12:52:00.814Z,22.11